sensor_id;sensor_type;location;lat;lon;timestamp;P1;durP1;ratioP1;P2;durP2;ratioP2
78877;SDS011;68257;43.514;1.498;2023-11-19T00:02:06;18.83;;;12.20;;
78877;SDS011;68257;43.514;1.498;2023-11-19T00:04:33;15.73;;;8.20;;
78877;SDS011;68257;43.514;1.498;2023-11-19T00:07:04;15.68;;;7.57;;
78877;SDS011;68257;43.514;1.498;2023-11-19T00:09:31;13.43;;;7.53;;
78877;SDS011;68257;43.514;1.498;2023-11-19T00:11:56;11.13;;;6.47;;
78877;SDS011;68257;43.514;1.498;2023-11-19T00:14:22;12.07;;;6.72;;
78877;SDS011;68257;43.514;1.498;2023-11-19T00:16:49;11.88;;;6.43;;
78877;SDS011;68257;43.514;1.498;2023-11-19T00:19:16;14.73;;;6.20;;
78877;SDS011;68257;43.514;1.498;2023-11-19T00:21:41;11.02;;;6.18;;
78877;SDS011;68257;43.514;1.498;2023-11-19T00:24:07;9.37;;;5.70;;
78877;SDS011;68257;43.514;1.498;2023-11-19T00:26:33;12.68;;;6.32;;
78877;SDS011;68257;43.514;1.498;2023-11-19T00:28:58;10.30;;;6.30;;
78877;SDS011;68257;43.514;1.498;2023-11-19T00:31:24;10.85;;;5.90;;
78877;SDS011;68257;43.514;1.498;2023-11-19T00:33:51;14.27;;;5.80;;
78877;SDS011;68257;43.514;1.498;2023-11-19T00:36:16;9.52;;;5.25;;
78877;SDS011;68257;43.514;1.498;2023-11-19T00:38:42;10.20;;;4.57;;
78877;SDS011;68257;43.514;1.498;2023-11-19T00:41:07;9.90;;;5.57;;
78877;SDS011;68257;43.514;1.498;2023-11-19T00:43:33;10.53;;;4.77;;
78877;SDS011;68257;43.514;1.498;2023-11-19T00:45:58;10.07;;;4.80;;
78877;SDS011;68257;43.514;1.498;2023-11-19T00:48:23;8.10;;;4.60;;
78877;SDS011;68257;43.514;1.498;2023-11-19T00:50:49;9.23;;;4.60;;
78877;SDS011;68257;43.514;1.498;2023-11-19T00:53:14;9.15;;;4.68;;
78877;SDS011;68257;43.514;1.498;2023-11-19T00:55:40;11.70;;;5.10;;
78877;SDS011;68257;43.514;1.498;2023-11-19T00:58:06;9.18;;;4.70;;
78877;SDS011;68257;43.514;1.498;2023-11-19T01:00:31;7.10;;;4.68;;
78877;SDS011;68257;43.514;1.498;2023-11-19T01:02:57;7.73;;;4.43;;
78877;SDS011;68257;43.514;1.498;2023-11-19T01:05:23;14.73;;;6.70;;
78877;SDS011;68257;43.514;1.498;2023-11-19T01:07:48;17.00;;;8.98;;
78877;SDS011;68257;43.514;1.498;2023-11-19T01:10:14;15.43;;;8.63;;
78877;SDS011;68257;43.514;1.498;2023-11-19T01:12:43;16.65;;;8.52;;
78877;SDS011;68257;43.514;1.498;2023-11-19T01:15:09;13.30;;;7.47;;
78877;SDS011;68257;43.514;1.498;2023-11-19T01:17:35;15.45;;;7.88;;
78877;SDS011;68257;43.514;1.498;2023-11-19T01:20:02;15.30;;;9.40;;
78877;SDS011;68257;43.514;1.498;2023-11-19T01:22:28;14.70;;;8.77;;
78877;SDS011;68257;43.514;1.498;2023-11-19T01:24:53;13.23;;;8.47;;
78877;SDS011;68257;43.514;1.498;2023-11-19T01:27:19;12.57;;;7.57;;
78877;SDS011;68257;43.514;1.498;2023-11-19T01:29:44;11.00;;;6.15;;
78877;SDS011;68257;43.514;1.498;2023-11-19T01:32:10;9.87;;;5.47;;
78877;SDS011;68257;43.514;1.498;2023-11-19T01:34:37;10.02;;;5.63;;
78877;SDS011;68257;43.514;1.498;2023-11-19T01:37:02;12.37;;;6.40;;
78877;SDS011;68257;43.514;1.498;2023-11-19T01:39:28;12.97;;;7.10;;
78877;SDS011;68257;43.514;1.498;2023-11-19T01:41:53;13.00;;;7.60;;
78877;SDS011;68257;43.514;1.498;2023-11-19T01:44:19;14.48;;;8.00;;
78877;SDS011;68257;43.514;1.498;2023-11-19T01:46:45;15.17;;;8.00;;
78877;SDS011;68257;43.514;1.498;2023-11-19T01:49:15;15.13;;;8.02;;
78877;SDS011;68257;43.514;1.498;2023-11-19T01:51:41;13.77;;;7.97;;
78877;SDS011;68257;43.514;1.498;2023-11-19T01:54:06;13.17;;;7.70;;
78877;SDS011;68257;43.514;1.498;2023-11-19T01:56:32;13.60;;;7.38;;
78877;SDS011;68257;43.514;1.498;2023-11-19T01:58:59;15.15;;;7.40;;
78877;SDS011;68257;43.514;1.498;2023-11-19T02:01:24;11.73;;;7.33;;
78877;SDS011;68257;43.514;1.498;2023-11-19T02:03:50;12.73;;;7.50;;
78877;SDS011;68257;43.514;1.498;2023-11-19T02:06:16;16.27;;;8.38;;
78877;SDS011;68257;43.514;1.498;2023-11-19T02:08:42;13.27;;;7.43;;
78877;SDS011;68257;43.514;1.498;2023-11-19T02:11:08;14.90;;;7.63;;
78877;SDS011;68257;43.514;1.498;2023-11-19T02:13:34;14.47;;;7.93;;
78877;SDS011;68257;43.514;1.498;2023-11-19T02:16:01;14.85;;;8.65;;
78877;SDS011;68257;43.514;1.498;2023-11-19T02:18:28;12.48;;;7.68;;
78877;SDS011;68257;43.514;1.498;2023-11-19T02:20:54;12.93;;;7.23;;
78877;SDS011;68257;43.514;1.498;2023-11-19T02:23:20;12.80;;;7.40;;
78877;SDS011;68257;43.514;1.498;2023-11-19T02:28:42;14.27;;;7.75;;
78877;SDS011;68257;43.514;1.498;2023-11-19T02:31:08;14.00;;;8.27;;
78877;SDS011;68257;43.514;1.498;2023-11-19T02:33:34;13.38;;;7.82;;
78877;SDS011;68257;43.514;1.498;2023-11-19T02:36:01;13.50;;;7.53;;
78877;SDS011;68257;43.514;1.498;2023-11-19T02:38:28;14.15;;;7.88;;
78877;SDS011;68257;43.514;1.498;2023-11-19T02:40:54;14.83;;;7.63;;
78877;SDS011;68257;43.514;1.498;2023-11-19T02:43:19;11.87;;;7.93;;
78877;SDS011;68257;43.514;1.498;2023-11-19T02:45:44;14.00;;;8.40;;
78877;SDS011;68257;43.514;1.498;2023-11-19T02:48:10;16.20;;;9.32;;
78877;SDS011;68257;43.514;1.498;2023-11-19T02:50:36;20.97;;;11.47;;
78877;SDS011;68257;43.514;1.498;2023-11-19T02:53:01;18.13;;;11.10;;
78877;SDS011;68257;43.514;1.498;2023-11-19T02:55:27;14.73;;;9.07;;
78877;SDS011;68257;43.514;1.498;2023-11-19T02:57:55;13.90;;;8.88;;
78877;SDS011;68257;43.514;1.498;2023-11-19T03:00:21;16.05;;;8.85;;
78877;SDS011;68257;43.514;1.498;2023-11-19T03:03:00;13.00;;;8.15;;
78877;SDS011;68257;43.514;1.498;2023-11-19T03:05:42;15.97;;;9.20;;
78877;SDS011;68257;43.514;1.498;2023-11-19T03:08:09;11.85;;;7.20;;
78877;SDS011;68257;43.514;1.498;2023-11-19T03:10:35;12.30;;;7.50;;
78877;SDS011;68257;43.514;1.498;2023-11-19T03:13:00;11.90;;;6.30;;
78877;SDS011;68257;43.514;1.498;2023-11-19T03:15:28;12.00;;;7.05;;
78877;SDS011;68257;43.514;1.498;2023-11-19T03:17:53;11.27;;;7.00;;
78877;SDS011;68257;43.514;1.498;2023-11-19T03:20:19;14.20;;;8.17;;
78877;SDS011;68257;43.514;1.498;2023-11-19T03:22:45;12.23;;;7.32;;
78877;SDS011;68257;43.514;1.498;2023-11-19T03:25:11;12.00;;;7.43;;
78877;SDS011;68257;43.514;1.498;2023-11-19T03:27:37;12.10;;;6.82;;
78877;SDS011;68257;43.514;1.498;2023-11-19T03:30:09;13.25;;;8.57;;
78877;SDS011;68257;43.514;1.498;2023-11-19T03:32:35;14.20;;;8.30;;
78877;SDS011;68257;43.514;1.498;2023-11-19T03:35:01;14.40;;;9.00;;
78877;SDS011;68257;43.514;1.498;2023-11-19T03:37:27;14.82;;;8.90;;
78877;SDS011;68257;43.514;1.498;2023-11-19T03:39:53;13.53;;;8.20;;
78877;SDS011;68257;43.514;1.498;2023-11-19T03:42:20;12.88;;;7.88;;
78877;SDS011;68257;43.514;1.498;2023-11-19T03:44:45;12.83;;;7.83;;
78877;SDS011;68257;43.514;1.498;2023-11-19T03:47:11;12.38;;;8.05;;
78877;SDS011;68257;43.514;1.498;2023-11-19T03:49:36;16.20;;;8.63;;
78877;SDS011;68257;43.514;1.498;2023-11-19T03:52:02;14.73;;;8.70;;
78877;SDS011;68257;43.514;1.498;2023-11-19T03:54:27;15.50;;;8.65;;
78877;SDS011;68257;43.514;1.498;2023-11-19T03:56:53;12.77;;;8.10;;
78877;SDS011;68257;43.514;1.498;2023-11-19T03:59:18;11.87;;;8.10;;
78877;SDS011;68257;43.514;1.498;2023-11-19T04:01:45;12.50;;;8.02;;
78877;SDS011;68257;43.514;1.498;2023-11-19T04:04:11;15.43;;;8.57;;
78877;SDS011;68257;43.514;1.498;2023-11-19T04:06:36;13.93;;;8.90;;
78877;SDS011;68257;43.514;1.498;2023-11-19T04:09:01;15.80;;;8.53;;
78877;SDS011;68257;43.514;1.498;2023-11-19T04:11:27;15.25;;;8.35;;
78877;SDS011;68257;43.514;1.498;2023-11-19T04:13:52;14.15;;;7.82;;
78877;SDS011;68257;43.514;1.498;2023-11-19T04:16:18;11.53;;;7.47;;
78877;SDS011;68257;43.514;1.498;2023-11-19T04:18:43;15.50;;;10.43;;
78877;SDS011;68257;43.514;1.498;2023-11-19T04:21:08;19.73;;;12.40;;
78877;SDS011;68257;43.514;1.498;2023-11-19T04:23:34;18.03;;;11.40;;
78877;SDS011;68257;43.514;1.498;2023-11-19T04:26:03;19.50;;;12.00;;
78877;SDS011;68257;43.514;1.498;2023-11-19T04:28:29;17.13;;;10.20;;
78877;SDS011;68257;43.514;1.498;2023-11-19T04:30:55;18.42;;;10.23;;
78877;SDS011;68257;43.514;1.498;2023-11-19T04:33:21;14.10;;;7.90;;
78877;SDS011;68257;43.514;1.498;2023-11-19T04:35:46;15.65;;;7.72;;
78877;SDS011;68257;43.514;1.498;2023-11-19T04:38:11;13.43;;;8.23;;
78877;SDS011;68257;43.514;1.498;2023-11-19T04:40:37;14.33;;;8.53;;
78877;SDS011;68257;43.514;1.498;2023-11-19T04:43:02;14.63;;;7.90;;
78877;SDS011;68257;43.514;1.498;2023-11-19T04:45:27;14.17;;;7.67;;
78877;SDS011;68257;43.514;1.498;2023-11-19T04:47:53;13.57;;;8.03;;
78877;SDS011;68257;43.514;1.498;2023-11-19T04:50:18;13.77;;;9.07;;
78877;SDS011;68257;43.514;1.498;2023-11-19T04:52:44;14.10;;;9.53;;
78877;SDS011;68257;43.514;1.498;2023-11-19T04:55:10;15.65;;;8.70;;
78877;SDS011;68257;43.514;1.498;2023-11-19T04:57:36;16.42;;;9.48;;
78877;SDS011;68257;43.514;1.498;2023-11-19T05:00:02;14.50;;;7.73;;
78877;SDS011;68257;43.514;1.498;2023-11-19T05:02:30;13.80;;;8.30;;
78877;SDS011;68257;43.514;1.498;2023-11-19T05:04:55;11.90;;;7.27;;
78877;SDS011;68257;43.514;1.498;2023-11-19T05:07:20;11.07;;;7.38;;
78877;SDS011;68257;43.514;1.498;2023-11-19T05:09:46;12.10;;;7.07;;
78877;SDS011;68257;43.514;1.498;2023-11-19T05:12:11;16.40;;;8.67;;
78877;SDS011;68257;43.514;1.498;2023-11-19T05:14:37;14.73;;;8.83;;
78877;SDS011;68257;43.514;1.498;2023-11-19T05:17:03;16.15;;;8.02;;
78877;SDS011;68257;43.514;1.498;2023-11-19T05:19:28;11.10;;;6.70;;
78877;SDS011;68257;43.514;1.498;2023-11-19T05:21:54;11.30;;;7.10;;
78877;SDS011;68257;43.514;1.498;2023-11-19T05:24:19;11.60;;;7.30;;
78877;SDS011;68257;43.514;1.498;2023-11-19T05:26:44;13.97;;;7.70;;
78877;SDS011;68257;43.514;1.498;2023-11-19T05:29:10;14.33;;;8.43;;
78877;SDS011;68257;43.514;1.498;2023-11-19T05:31:35;14.63;;;8.23;;
78877;SDS011;68257;43.514;1.498;2023-11-19T05:34:01;13.83;;;9.57;;
78877;SDS011;68257;43.514;1.498;2023-11-19T05:36:26;11.53;;;7.83;;
78877;SDS011;68257;43.514;1.498;2023-11-19T05:38:52;13.48;;;8.95;;
78877;SDS011;68257;43.514;1.498;2023-11-19T05:41:18;15.57;;;8.77;;
78877;SDS011;68257;43.514;1.498;2023-11-19T05:43:43;14.17;;;8.30;;
78877;SDS011;68257;43.514;1.498;2023-11-19T05:46:08;12.70;;;7.77;;
78877;SDS011;68257;43.514;1.498;2023-11-19T05:48:34;14.50;;;7.70;;
78877;SDS011;68257;43.514;1.498;2023-11-19T05:50:59;13.55;;;8.10;;
78877;SDS011;68257;43.514;1.498;2023-11-19T05:53:25;12.23;;;8.03;;
78877;SDS011;68257;43.514;1.498;2023-11-19T05:55:50;12.10;;;7.87;;
78877;SDS011;68257;43.514;1.498;2023-11-19T05:58:24;14.15;;;8.10;;
78877;SDS011;68257;43.514;1.498;2023-11-19T06:00:51;12.48;;;8.05;;
78877;SDS011;68257;43.514;1.498;2023-11-19T06:03:16;13.07;;;8.57;;
78877;SDS011;68257;43.514;1.498;2023-11-19T06:05:44;16.35;;;8.40;;
78877;SDS011;68257;43.514;1.498;2023-11-19T06:08:11;12.37;;;7.70;;
78877;SDS011;68257;43.514;1.498;2023-11-19T06:10:38;13.93;;;8.15;;
78877;SDS011;68257;43.514;1.498;2023-11-19T06:13:05;13.40;;;7.85;;
78877;SDS011;68257;43.514;1.498;2023-11-19T06:15:31;14.07;;;7.68;;
78877;SDS011;68257;43.514;1.498;2023-11-19T06:17:58;13.05;;;7.43;;
78877;SDS011;68257;43.514;1.498;2023-11-19T06:20:25;12.63;;;7.67;;
78877;SDS011;68257;43.514;1.498;2023-11-19T06:22:53;13.77;;;7.80;;
78877;SDS011;68257;43.514;1.498;2023-11-19T06:25:18;11.47;;;7.97;;
78877;SDS011;68257;43.514;1.498;2023-11-19T06:27:44;14.85;;;7.82;;
78877;SDS011;68257;43.514;1.498;2023-11-19T06:30:09;11.03;;;7.70;;
78877;SDS011;68257;43.514;1.498;2023-11-19T06:32:36;11.27;;;7.40;;
78877;SDS011;68257;43.514;1.498;2023-11-19T06:35:02;16.77;;;9.10;;
78877;SDS011;68257;43.514;1.498;2023-11-19T06:37:29;15.43;;;9.80;;
78877;SDS011;68257;43.514;1.498;2023-11-19T06:39:55;14.20;;;8.53;;
78877;SDS011;68257;43.514;1.498;2023-11-19T06:42:20;15.23;;;11.03;;
78877;SDS011;68257;43.514;1.498;2023-11-19T06:44:46;15.47;;;8.30;;
78877;SDS011;68257;43.514;1.498;2023-11-19T06:47:11;14.40;;;8.13;;
78877;SDS011;68257;43.514;1.498;2023-11-19T06:49:36;13.77;;;9.20;;
78877;SDS011;68257;43.514;1.498;2023-11-19T06:52:02;12.95;;;8.10;;
78877;SDS011;68257;43.514;1.498;2023-11-19T06:54:27;11.97;;;8.00;;
78877;SDS011;68257;43.514;1.498;2023-11-19T06:56:53;13.23;;;8.90;;
78877;SDS011;68257;43.514;1.498;2023-11-19T06:59:18;15.93;;;10.00;;
78877;SDS011;68257;43.514;1.498;2023-11-19T07:01:44;14.88;;;10.07;;
78877;SDS011;68257;43.514;1.498;2023-11-19T07:04:12;15.50;;;9.80;;
78877;SDS011;68257;43.514;1.498;2023-11-19T07:06:37;14.90;;;9.10;;
78877;SDS011;68257;43.514;1.498;2023-11-19T07:09:05;15.52;;;8.75;;
78877;SDS011;68257;43.514;1.498;2023-11-19T07:11:39;13.20;;;8.60;;
78877;SDS011;68257;43.514;1.498;2023-11-19T07:14:05;16.05;;;8.60;;
78877;SDS011;68257;43.514;1.498;2023-11-19T07:16:34;15.07;;;8.77;;
78877;SDS011;68257;43.514;1.498;2023-11-19T07:19:02;14.50;;;9.00;;
78877;SDS011;68257;43.514;1.498;2023-11-19T07:21:28;13.68;;;8.52;;
78877;SDS011;68257;43.514;1.498;2023-11-19T07:23:53;18.40;;;8.73;;
78877;SDS011;68257;43.514;1.498;2023-11-19T07:26:22;16.55;;;8.85;;
78877;SDS011;68257;43.514;1.498;2023-11-19T07:28:48;14.80;;;9.20;;
78877;SDS011;68257;43.514;1.498;2023-11-19T07:31:16;18.73;;;8.93;;
78877;SDS011;68257;43.514;1.498;2023-11-19T07:33:45;15.15;;;9.07;;
78877;SDS011;68257;43.514;1.498;2023-11-19T07:36:12;19.00;;;9.88;;
78877;SDS011;68257;43.514;1.498;2023-11-19T07:38:38;18.13;;;10.17;;
78877;SDS011;68257;43.514;1.498;2023-11-19T07:41:03;14.63;;;8.75;;
78877;SDS011;68257;43.514;1.498;2023-11-19T07:43:30;14.73;;;8.17;;
78877;SDS011;68257;43.514;1.498;2023-11-19T07:45:55;15.05;;;9.00;;
78877;SDS011;68257;43.514;1.498;2023-11-19T07:48:21;14.70;;;8.60;;
78877;SDS011;68257;43.514;1.498;2023-11-19T07:50:48;19.23;;;9.85;;
78877;SDS011;68257;43.514;1.498;2023-11-19T07:53:17;13.80;;;8.30;;
78877;SDS011;68257;43.514;1.498;2023-11-19T07:55:42;13.38;;;7.88;;
78877;SDS011;68257;43.514;1.498;2023-11-19T07:58:09;14.27;;;8.90;;
78877;SDS011;68257;43.514;1.498;2023-11-19T08:00:35;12.43;;;7.75;;
78877;SDS011;68257;43.514;1.498;2023-11-19T08:03:01;13.63;;;8.93;;
78877;SDS011;68257;43.514;1.498;2023-11-19T08:05:26;13.32;;;9.02;;
78877;SDS011;68257;43.514;1.498;2023-11-19T08:07:51;17.93;;;11.40;;
78877;SDS011;68257;43.514;1.498;2023-11-19T08:10:18;21.02;;;10.27;;
78877;SDS011;68257;43.514;1.498;2023-11-19T08:12:44;13.73;;;7.90;;
78877;SDS011;68257;43.514;1.498;2023-11-19T08:15:09;13.32;;;8.98;;
78877;SDS011;68257;43.514;1.498;2023-11-19T08:17:35;16.08;;;9.23;;
78877;SDS011;68257;43.514;1.498;2023-11-19T08:20:01;14.88;;;7.82;;
78877;SDS011;68257;43.514;1.498;2023-11-19T08:22:26;11.80;;;7.70;;
78877;SDS011;68257;43.514;1.498;2023-11-19T08:24:52;13.50;;;7.23;;
78877;SDS011;68257;43.514;1.498;2023-11-19T08:27:17;11.63;;;7.07;;
78877;SDS011;68257;43.514;1.498;2023-11-19T08:29:42;12.30;;;7.77;;
78877;SDS011;68257;43.514;1.498;2023-11-19T08:32:08;13.70;;;8.83;;
78877;SDS011;68257;43.514;1.498;2023-11-19T08:34:33;12.82;;;8.32;;
78877;SDS011;68257;43.514;1.498;2023-11-19T08:36:59;12.75;;;8.18;;
78877;SDS011;68257;43.514;1.498;2023-11-19T08:39:24;12.43;;;8.20;;
78877;SDS011;68257;43.514;1.498;2023-11-19T08:41:49;10.77;;;7.43;;
78877;SDS011;68257;43.514;1.498;2023-11-19T08:44:15;14.10;;;10.23;;
78877;SDS011;68257;43.514;1.498;2023-11-19T08:46:50;11.80;;;7.70;;
78877;SDS011;68257;43.514;1.498;2023-11-19T08:49:15;12.57;;;7.93;;
78877;SDS011;68257;43.514;1.498;2023-11-19T08:51:41;11.03;;;8.90;;
78877;SDS011;68257;43.514;1.498;2023-11-19T08:54:06;14.55;;;9.65;;
78877;SDS011;68257;43.514;1.498;2023-11-19T08:56:32;23.73;;;17.10;;
78877;SDS011;68257;43.514;1.498;2023-11-19T08:58:59;17.77;;;12.40;;
78877;SDS011;68257;43.514;1.498;2023-11-19T09:01:25;26.03;;;17.57;;
78877;SDS011;68257;43.514;1.498;2023-11-19T09:03:50;16.58;;;11.50;;
78877;SDS011;68257;43.514;1.498;2023-11-19T09:06:16;10.40;;;9.23;;
78877;SDS011;68257;43.514;1.498;2023-11-19T09:08:44;16.07;;;12.20;;
78877;SDS011;68257;43.514;1.498;2023-11-19T09:11:10;14.02;;;9.75;;
78877;SDS011;68257;43.514;1.498;2023-11-19T09:13:35;25.03;;;17.70;;
78877;SDS011;68257;43.514;1.498;2023-11-19T09:16:01;11.63;;;9.52;;
78877;SDS011;68257;43.514;1.498;2023-11-19T09:18:29;16.60;;;9.73;;
78877;SDS011;68257;43.514;1.498;2023-11-19T09:20:55;31.42;;;23.90;;
78877;SDS011;68257;43.514;1.498;2023-11-19T09:23:21;21.17;;;15.80;;
78877;SDS011;68257;43.514;1.498;2023-11-19T09:25:46;16.02;;;10.60;;
78877;SDS011;68257;43.514;1.498;2023-11-19T09:28:11;11.13;;;7.70;;
78877;SDS011;68257;43.514;1.498;2023-11-19T09:30:39;10.60;;;8.20;;
78877;SDS011;68257;43.514;1.498;2023-11-19T09:33:04;16.13;;;12.63;;
78877;SDS011;68257;43.514;1.498;2023-11-19T09:35:30;13.77;;;11.40;;
78877;SDS011;68257;43.514;1.498;2023-11-19T09:37:56;11.40;;;8.95;;
78877;SDS011;68257;43.514;1.498;2023-11-19T09:40:21;17.27;;;15.27;;
78877;SDS011;68257;43.514;1.498;2023-11-19T09:42:46;9.80;;;7.93;;
78877;SDS011;68257;43.514;1.498;2023-11-19T09:45:13;10.20;;;7.30;;
78877;SDS011;68257;43.514;1.498;2023-11-19T09:47:42;14.00;;;12.55;;
78877;SDS011;68257;43.514;1.498;2023-11-19T09:50:08;12.80;;;10.20;;
78877;SDS011;68257;43.514;1.498;2023-11-19T09:52:34;15.18;;;12.60;;
78877;SDS011;68257;43.514;1.498;2023-11-19T09:55:00;9.48;;;7.13;;
78877;SDS011;68257;43.514;1.498;2023-11-19T09:57:25;11.37;;;7.57;;
78877;SDS011;68257;43.514;1.498;2023-11-19T09:59:51;11.05;;;7.30;;
78877;SDS011;68257;43.514;1.498;2023-11-19T10:02:17;11.87;;;7.60;;
78877;SDS011;68257;43.514;1.498;2023-11-19T10:04:43;15.60;;;12.15;;
78877;SDS011;68257;43.514;1.498;2023-11-19T10:07:10;13.88;;;9.93;;
78877;SDS011;68257;43.514;1.498;2023-11-19T10:09:35;11.27;;;9.77;;
78877;SDS011;68257;43.514;1.498;2023-11-19T10:12:01;11.30;;;9.97;;
78877;SDS011;68257;43.514;1.498;2023-11-19T10:14:26;10.50;;;8.10;;
78877;SDS011;68257;43.514;1.498;2023-11-19T10:16:54;10.13;;;7.60;;
78877;SDS011;68257;43.514;1.498;2023-11-19T10:19:20;10.93;;;7.72;;
78877;SDS011;68257;43.514;1.498;2023-11-19T10:21:46;9.20;;;6.40;;
78877;SDS011;68257;43.514;1.498;2023-11-19T10:24:12;12.15;;;8.90;;
78877;SDS011;68257;43.514;1.498;2023-11-19T10:26:37;9.80;;;7.37;;
78877;SDS011;68257;43.514;1.498;2023-11-19T10:29:02;11.17;;;9.30;;
78877;SDS011;68257;43.514;1.498;2023-11-19T10:31:29;10.23;;;6.75;;
78877;SDS011;68257;43.514;1.498;2023-11-19T10:33:54;10.77;;;9.63;;
78877;SDS011;68257;43.514;1.498;2023-11-19T10:36:19;9.00;;;7.40;;
78877;SDS011;68257;43.514;1.498;2023-11-19T10:38:55;9.97;;;8.33;;
78877;SDS011;68257;43.514;1.498;2023-11-19T10:41:28;8.57;;;7.20;;
78877;SDS011;68257;43.514;1.498;2023-11-19T10:43:57;11.00;;;9.40;;
78877;SDS011;68257;43.514;1.498;2023-11-19T10:46:41;9.90;;;8.20;;
78877;SDS011;68257;43.514;1.498;2023-11-19T10:49:08;10.32;;;8.90;;
78877;SDS011;68257;43.514;1.498;2023-11-19T10:51:34;16.67;;;14.97;;
78877;SDS011;68257;43.514;1.498;2023-11-19T10:54:05;9.60;;;7.40;;
78877;SDS011;68257;43.514;1.498;2023-11-19T10:56:34;9.40;;;7.90;;
78877;SDS011;68257;43.514;1.498;2023-11-19T10:59:00;18.07;;;16.17;;
78877;SDS011;68257;43.514;1.498;2023-11-19T11:01:39;10.77;;;9.30;;
78877;SDS011;68257;43.514;1.498;2023-11-19T11:04:13;9.77;;;7.10;;
78877;SDS011;68257;43.514;1.498;2023-11-19T11:06:40;8.33;;;6.67;;
78877;SDS011;68257;43.514;1.498;2023-11-19T11:09:06;10.00;;;6.47;;
78877;SDS011;68257;43.514;1.498;2023-11-19T11:11:36;8.65;;;7.38;;
78877;SDS011;68257;43.514;1.498;2023-11-19T11:14:03;9.95;;;7.90;;
78877;SDS011;68257;43.514;1.498;2023-11-19T11:16:29;8.82;;;6.20;;
78877;SDS011;68257;43.514;1.498;2023-11-19T11:18:56;6.57;;;5.60;;
78877;SDS011;68257;43.514;1.498;2023-11-19T11:21:22;7.40;;;5.82;;
78877;SDS011;68257;43.514;1.498;2023-11-19T11:37:39;8.73;;;7.90;;
78877;SDS011;68257;43.514;1.498;2023-11-19T11:40:15;9.02;;;8.10;;
78877;SDS011;68257;43.514;1.498;2023-11-19T11:42:41;13.23;;;12.00;;
78877;SDS011;68257;43.514;1.498;2023-11-19T11:50:11;14.25;;;12.85;;
78877;SDS011;68257;43.514;1.498;2023-11-19T11:55:26;10.20;;;7.25;;
78877;SDS011;68257;43.514;1.498;2023-11-19T11:58:07;7.47;;;5.63;;
78877;SDS011;68257;43.514;1.498;2023-11-19T12:00:36;7.43;;;5.38;;
78877;SDS011;68257;43.514;1.498;2023-11-19T12:03:04;7.47;;;5.07;;
78877;SDS011;68257;43.514;1.498;2023-11-19T12:05:31;6.38;;;4.80;;
78877;SDS011;68257;43.514;1.498;2023-11-19T12:08:11;7.15;;;5.25;;
78877;SDS011;68257;43.514;1.498;2023-11-19T12:13:14;7.07;;;5.93;;
78877;SDS011;68257;43.514;1.498;2023-11-19T12:18:23;8.07;;;4.72;;
78877;SDS011;68257;43.514;1.498;2023-11-19T12:20:50;6.32;;;4.70;;
78877;SDS011;68257;43.514;1.498;2023-11-19T12:23:15;7.50;;;5.67;;
78877;SDS011;68257;43.514;1.498;2023-11-19T12:25:41;6.77;;;4.83;;
78877;SDS011;68257;43.514;1.498;2023-11-19T12:28:11;7.33;;;5.03;;
78877;SDS011;68257;43.514;1.498;2023-11-19T12:30:37;7.97;;;4.55;;
78877;SDS011;68257;43.514;1.498;2023-11-19T12:33:07;8.43;;;4.90;;
78877;SDS011;68257;43.514;1.498;2023-11-19T12:35:45;7.60;;;5.07;;
78877;SDS011;68257;43.514;1.498;2023-11-19T12:38:22;5.85;;;4.30;;
78877;SDS011;68257;43.514;1.498;2023-11-19T12:41:09;10.88;;;8.38;;
78877;SDS011;68257;43.514;1.498;2023-11-19T12:43:36;15.70;;;11.57;;
78877;SDS011;68257;43.514;1.498;2023-11-19T12:46:03;9.27;;;5.30;;
78877;SDS011;68257;43.514;1.498;2023-11-19T12:48:41;7.95;;;4.63;;
78877;SDS011;68257;43.514;1.498;2023-11-19T12:51:07;7.23;;;5.30;;
78877;SDS011;68257;43.514;1.498;2023-11-19T12:53:46;8.40;;;4.25;;
78877;SDS011;68257;43.514;1.498;2023-11-19T12:56:15;7.68;;;4.55;;
78877;SDS011;68257;43.514;1.498;2023-11-19T12:58:41;7.93;;;4.30;;
78877;SDS011;68257;43.514;1.498;2023-11-19T13:01:08;7.80;;;4.68;;
78877;SDS011;68257;43.514;1.498;2023-11-19T13:03:35;7.85;;;4.50;;
78877;SDS011;68257;43.514;1.498;2023-11-19T13:06:06;7.68;;;4.93;;
78877;SDS011;68257;43.514;1.498;2023-11-19T13:11:09;8.18;;;4.65;;
78877;SDS011;68257;43.514;1.498;2023-11-19T13:16:21;7.70;;;4.72;;
78877;SDS011;68257;43.514;1.498;2023-11-19T13:18:47;15.60;;;10.23;;
78877;SDS011;68257;43.514;1.498;2023-11-19T13:21:12;9.85;;;5.43;;
78877;SDS011;68257;43.514;1.498;2023-11-19T13:23:38;9.32;;;5.07;;
78877;SDS011;68257;43.514;1.498;2023-11-19T13:26:03;6.73;;;4.63;;
78877;SDS011;68257;43.514;1.498;2023-11-19T13:28:29;6.63;;;4.20;;
78877;SDS011;68257;43.514;1.498;2023-11-19T13:30:54;6.93;;;4.40;;
78877;SDS011;68257;43.514;1.498;2023-11-19T13:33:20;13.00;;;4.80;;
78877;SDS011;68257;43.514;1.498;2023-11-19T13:35:45;9.60;;;4.10;;
78877;SDS011;68257;43.514;1.498;2023-11-19T13:38:11;7.50;;;4.85;;
78877;SDS011;68257;43.514;1.498;2023-11-19T13:40:36;9.20;;;4.23;;
78877;SDS011;68257;43.514;1.498;2023-11-19T13:43:01;9.10;;;5.57;;
78877;SDS011;68257;43.514;1.498;2023-11-19T13:45:27;9.27;;;5.80;;
78877;SDS011;68257;43.514;1.498;2023-11-19T13:47:52;8.03;;;4.50;;
78877;SDS011;68257;43.514;1.498;2023-11-19T13:50:18;6.95;;;4.18;;
78877;SDS011;68257;43.514;1.498;2023-11-19T13:52:43;6.53;;;3.70;;
78877;SDS011;68257;43.514;1.498;2023-11-19T13:55:11;7.63;;;3.88;;
78877;SDS011;68257;43.514;1.498;2023-11-19T13:57:37;5.57;;;3.50;;
78877;SDS011;68257;43.514;1.498;2023-11-19T14:00:03;7.57;;;3.97;;
78877;SDS011;68257;43.514;1.498;2023-11-19T14:02:31;9.68;;;4.88;;
78877;SDS011;68257;43.514;1.498;2023-11-19T14:04:57;9.43;;;5.47;;
78877;SDS011;68257;43.514;1.498;2023-11-19T14:07:22;6.80;;;4.20;;
78877;SDS011;68257;43.514;1.498;2023-11-19T14:09:47;8.23;;;4.57;;
78877;SDS011;68257;43.514;1.498;2023-11-19T14:12:13;7.13;;;3.80;;
78877;SDS011;68257;43.514;1.498;2023-11-19T14:14:38;6.07;;;3.53;;
78877;SDS011;68257;43.514;1.498;2023-11-19T14:17:04;6.13;;;3.45;;
78877;SDS011;68257;43.514;1.498;2023-11-19T14:19:30;7.90;;;4.50;;
78877;SDS011;68257;43.514;1.498;2023-11-19T14:21:55;10.03;;;5.13;;
78877;SDS011;68257;43.514;1.498;2023-11-19T14:24:20;12.00;;;7.80;;
78877;SDS011;68257;43.514;1.498;2023-11-19T14:26:47;9.77;;;5.22;;
78877;SDS011;68257;43.514;1.498;2023-11-19T14:29:13;9.05;;;5.85;;
78877;SDS011;68257;43.514;1.498;2023-11-19T14:31:39;9.43;;;6.10;;
78877;SDS011;68257;43.514;1.498;2023-11-19T14:34:05;7.35;;;3.50;;
78877;SDS011;68257;43.514;1.498;2023-11-19T14:36:30;10.17;;;3.83;;
78877;SDS011;68257;43.514;1.498;2023-11-19T14:38:55;13.30;;;9.07;;
78877;SDS011;68257;43.514;1.498;2023-11-19T14:41:22;9.20;;;4.93;;
78877;SDS011;68257;43.514;1.498;2023-11-19T14:43:48;7.07;;;4.03;;
78877;SDS011;68257;43.514;1.498;2023-11-19T14:46:13;5.77;;;3.37;;
78877;SDS011;68257;43.514;1.498;2023-11-19T14:48:39;8.80;;;3.90;;
78877;SDS011;68257;43.514;1.498;2023-11-19T14:51:04;7.63;;;3.55;;
78877;SDS011;68257;43.514;1.498;2023-11-19T14:53:30;5.47;;;3.20;;
78877;SDS011;68257;43.514;1.498;2023-11-19T14:55:55;4.90;;;3.30;;
78877;SDS011;68257;43.514;1.498;2023-11-19T14:58:21;9.70;;;5.97;;
78877;SDS011;68257;43.514;1.498;2023-11-19T15:00:47;10.77;;;6.33;;
78877;SDS011;68257;43.514;1.498;2023-11-19T15:03:12;9.87;;;5.27;;
78877;SDS011;68257;43.514;1.498;2023-11-19T15:05:38;8.75;;;3.78;;
78877;SDS011;68257;43.514;1.498;2023-11-19T15:08:05;6.80;;;4.53;;